sensor_id;sensor_type;location;lat;lon;timestamp;pressure;altitude;pressure_sealevel;temperature;humidity
58686;BME280;44465;53.206;-6.106;2023-02-10T00:01:47;103399.94;;;20.05;52.57
58686;BME280;44465;53.206;-6.106;2023-02-10T00:04:13;103397.28;;;20.05;52.14
58686;BME280;44465;53.206;-6.106;2023-02-10T00:06:39;103397.28;;;20.04;52.26
58686;BME280;44465;53.206;-6.106;2023-02-10T00:09:06;103363.56;;;19.84;52.11
58686;BME280;44465;53.206;-6.106;2023-02-10T00:11:31;103340.47;;;19.74;52.28
58686;BME280;44465;53.206;-6.106;2023-02-10T00:14:17;103361.78;;;19.86;52.50
58686;BME280;44465;53.206;-6.106;2023-02-10T00:16:43;103376.81;;;19.98;52.21
58686;BME280;44465;53.206;-6.106;2023-02-10T00:19:09;103388.28;;;20.09;52.28
58686;BME280;44465;53.206;-6.106;2023-02-10T00:21:35;103383.91;;;20.05;52.12
58686;BME280;44465;53.206;-6.106;2023-02-10T00:24:01;103383.00;;;20.05;52.26
58686;BME280;44465;53.206;-6.106;2023-02-10T00:26:26;103374.16;;;19.99;51.92
58686;BME280;44465;53.206;-6.106;2023-02-10T00:28:52;103343.06;;;19.83;52.25
58686;BME280;44465;53.206;-6.106;2023-02-10T00:31:17;103342.16;;;19.87;52.20
58686;BME280;44465;53.206;-6.106;2023-02-10T00:33:45;103320.88;;;19.72;51.93
58686;BME280;44465;53.206;-6.106;2023-02-10T00:36:12;103330.63;;;19.80;52.10
58686;BME280;44465;53.206;-6.106;2023-02-10T00:38:39;103318.25;;;19.70;52.05
58686;BME280;44465;53.206;-6.106;2023-02-10T00:43:33;103311.13;;;19.69;52.22
58686;BME280;44465;53.206;-6.106;2023-02-10T00:45:59;103366.06;;;20.07;52.13
58686;BME280;44465;53.206;-6.106;2023-02-10T00:48:25;103282.59;;;19.71;52.06
58686;BME280;44465;53.206;-6.106;2023-02-10T00:50:50;103322.50;;;19.93;51.90
58686;BME280;44465;53.206;-6.106;2023-02-10T00:53:16;103280.84;;;19.68;52.14
58686;BME280;44465;53.206;-6.106;2023-02-10T00:55:41;103310.97;;;19.83;51.99
58686;BME280;44465;53.206;-6.106;2023-02-10T00:58:07;103309.22;;;19.87;52.21
58686;BME280;44465;53.206;-6.106;2023-02-10T01:00:32;103333.94;;;20.06;52.18
58686;BME280;44465;53.206;-6.106;2023-02-10T01:02:58;103315.41;;;19.90;52.25
58686;BME280;44465;53.206;-6.106;2023-02-10T01:05:23;103331.31;;;20.04;52.17
58686;BME280;44465;53.206;-6.106;2023-02-10T01:07:49;103330.44;;;20.02;52.10
58686;BME280;44465;53.206;-6.106;2023-02-10T01:10:14;103326.84;;;20.03;51.96
58686;BME280;44465;53.206;-6.106;2023-02-10T01:12:40;103335.69;;;20.08;52.20
58686;BME280;44465;53.206;-6.106;2023-02-10T01:15:06;103309.88;;;20.06;52.17
58686;BME280;44465;53.206;-6.106;2023-02-10T01:17:32;103319.66;;;20.07;51.99
58686;BME280;44465;53.206;-6.106;2023-02-10T01:19:58;103313.41;;;20.11;51.93
58686;BME280;44465;53.206;-6.106;2023-02-10T01:22:24;103301.94;;;19.98;52.14
58686;BME280;44465;53.206;-6.106;2023-02-10T01:24:49;103322.31;;;20.08;52.13
58686;BME280;44465;53.206;-6.106;2023-02-10T01:27:15;103311.63;;;20.08;52.06
58686;BME280;44465;53.206;-6.106;2023-02-10T01:29:40;103300.09;;;20.03;52.16
58686;BME280;44465;53.206;-6.106;2023-02-10T01:32:06;103299.19;;;20.03;52.25
58686;BME280;44465;53.206;-6.106;2023-02-10T01:34:31;103308.94;;;20.08;52.15
58686;BME280;44465;53.206;-6.106;2023-02-10T01:36:56;103296.53;;;20.04;52.07
58686;BME280;44465;53.206;-6.106;2023-02-10T01:39:22;103300.00;;;20.12;52.04
58686;BME280;44465;53.206;-6.106;2023-02-10T01:41:48;103278.72;;;20.00;52.11
58686;BME280;44465;53.206;-6.106;2023-02-10T01:46:46;103300.03;;;20.09;51.84
58686;BME280;44465;53.206;-6.106;2023-02-10T01:49:15;103296.47;;;20.09;51.93
58686;BME280;44465;53.206;-6.106;2023-02-10T01:51:49;103301.78;;;20.10;52.15
58686;BME280;44465;53.206;-6.106;2023-02-10T01:54:21;103291.16;;;20.07;51.93
58686;BME280;44465;53.206;-6.106;2023-02-10T01:56:49;103282.25;;;20.05;52.08
58686;BME280;44465;53.206;-6.106;2023-02-10T01:59:15;103278.69;;;20.06;52.04
58686;BME280;44465;53.206;-6.106;2023-02-10T02:01:41;103281.31;;;20.08;52.02
58686;BME280;44465;53.206;-6.106;2023-02-10T02:04:06;103266.16;;;20.08;52.12
58686;BME280;44465;53.206;-6.106;2023-02-10T02:06:33;103273.34;;;20.06;52.01
58686;BME280;44465;53.206;-6.106;2023-02-10T02:09:00;103280.41;;;20.09;51.91
58686;BME280;44465;53.206;-6.106;2023-02-10T02:29:44;103261.00;;;19.93;52.30
58686;BME280;44465;53.206;-6.106;2023-02-10T02:32:19;103264.44;;;20.04;52.03
58686;BME280;44465;53.206;-6.106;2023-02-10T02:35:10;103265.31;;;20.05;52.09
58686;BME280;44465;53.206;-6.106;2023-02-10T02:37:44;103262.63;;;20.06;52.29
58686;BME280;44465;53.206;-6.106;2023-02-10T02:40:12;103250.16;;;20.04;52.36
58686;BME280;44465;53.206;-6.106;2023-02-10T02:42:38;103245.69;;;20.06;52.29
58686;BME280;44465;53.206;-6.106;2023-02-10T02:45:05;103236.72;;;20.08;52.11
58686;BME280;44465;53.206;-6.106;2023-02-10T02:58:03;103227.81;;;20.08;52.26
58686;BME280;44465;53.206;-6.106;2023-02-10T03:00:33;103231.38;;;20.10;51.97
58686;BME280;44465;53.206;-6.106;2023-02-10T03:03:01;103216.28;;;20.03;52.32
58686;BME280;44465;53.206;-6.106;2023-02-10T03:05:31;103218.06;;;20.05;51.89
58686;BME280;44465;53.206;-6.106;2023-02-10T03:07:58;103202.88;;;20.07;52.06
58686;BME280;44465;53.206;-6.106;2023-02-10T03:10:23;103206.44;;;20.08;52.16
58686;BME280;44465;53.206;-6.106;2023-02-10T03:12:49;103214.47;;;20.06;52.07
58686;BME280;44465;53.206;-6.106;2023-02-10T03:15:16;103200.25;;;20.04;52.18
58686;BME280;44465;53.206;-6.106;2023-02-10T03:17:41;103194.84;;;20.07;52.16
58686;BME280;44465;53.206;-6.106;2023-02-10T03:20:07;103188.69;;;20.01;52.27
58686;BME280;44465;53.206;-6.106;2023-02-10T03:22:33;103197.56;;;20.03;52.11
58686;BME280;44465;53.206;-6.106;2023-02-10T03:24:59;103201.13;;;20.03;52.05
58686;BME280;44465;53.206;-6.106;2023-02-10T03:27:24;103200.22;;;20.07;52.24
58686;BME280;44465;53.206;-6.106;2023-02-10T03:29:50;103191.31;;;20.05;52.17
58686;BME280;44465;53.206;-6.106;2023-02-10T03:32:18;103201.03;;;20.09;52.05
58686;BME280;44465;53.206;-6.106;2023-02-10T03:34:44;103193.97;;;20.04;52.03
58686;BME280;44465;53.206;-6.106;2023-02-10T03:37:10;103191.38;;;19.99;52.09
58686;BME280;44465;53.206;-6.106;2023-02-10T03:39:35;103207.31;;;20.07;52.14
58686;BME280;44465;53.206;-6.106;2023-02-10T03:42:01;103191.38;;;19.99;51.98
58686;BME280;44465;53.206;-6.106;2023-02-10T03:44:26;103192.19;;;20.06;51.97
58686;BME280;44465;53.206;-6.106;2023-02-10T03:46:51;103185.13;;;20.00;52.08
58686;BME280;44465;53.206;-6.106;2023-02-10T03:49:17;103187.69;;;20.08;52.06
58686;BME280;44465;53.206;-6.106;2023-02-10T03:51:42;103183.28;;;20.04;52.13
58686;BME280;44465;53.206;-6.106;2023-02-10T03:54:08;103185.06;;;20.06;52.10
58686;BME280;44465;53.206;-6.106;2023-02-10T03:56:33;103177.97;;;20.02;52.11
58686;BME280;44465;53.206;-6.106;2023-02-10T03:59:03;103185.09;;;20.03;52.03
58686;BME280;44465;53.206;-6.106;2023-02-10T04:01:29;103176.13;;;20.07;52.16
58686;BME280;44465;53.206;-6.106;2023-02-10T04:03:55;103170.78;;;20.07;52.08
58686;BME280;44465;53.206;-6.106;2023-02-10T04:06:20;103169.00;;;20.06;51.76
58686;BME280;44465;53.206;-6.106;2023-02-10T04:08:47;103157.41;;;20.07;51.97
58686;BME280;44465;53.206;-6.106;2023-02-10T04:11:13;103157.41;;;20.07;51.95
58686;BME280;44465;53.206;-6.106;2023-02-10T04:13:40;103141.31;;;20.09;52.01
58686;BME280;44465;53.206;-6.106;2023-02-10T04:16:11;103145.78;;;20.08;52.19
58686;BME280;44465;53.206;-6.106;2023-02-10T04:18:38;103148.44;;;20.08;52.21
58686;BME280;44465;53.206;-6.106;2023-02-10T04:21:07;103138.69;;;20.06;52.13
58686;BME280;44465;53.206;-6.106;2023-02-10T04:23:33;103144.94;;;20.05;52.13
58686;BME280;44465;53.206;-6.106;2023-02-10T04:25:59;103148.50;;;20.05;52.09
58686;BME280;44465;53.206;-6.106;2023-02-10T04:28:25;103139.66;;;20.00;52.29
58686;BME280;44465;53.206;-6.106;2023-02-10T04:30:55;103152.03;;;20.09;52.07
58686;BME280;44465;53.206;-6.106;2023-02-10T04:33:21;103143.16;;;20.05;52.11
58686;BME280;44465;53.206;-6.106;2023-02-10T04:35:48;103143.09;;;20.08;52.12
58686;BME280;44465;53.206;-6.106;2023-02-10T04:38:14;103148.44;;;20.08;52.02
58686;BME280;44465;53.206;-6.106;2023-02-10T04:40:40;103149.38;;;20.06;52.08
58686;BME280;44465;53.206;-6.106;2023-02-10T04:43:07;103135.13;;;20.04;52.19
58686;BME280;44465;53.206;-6.106;2023-02-10T04:45:32;103150.22;;;20.09;52.11
58686;BME280;44465;53.206;-6.106;2023-02-10T04:47:58;103142.25;;;20.05;52.19
58686;BME280;44465;53.206;-6.106;2023-02-10T04:50:25;103132.50;;;20.02;52.18
58686;BME280;44465;53.206;-6.106;2023-02-10T04:52:50;103140.41;;;20.08;52.08
58686;BME280;44465;53.206;-6.106;2023-02-10T04:55:16;103127.94;;;20.09;52.15
58686;BME280;44465;53.206;-6.106;2023-02-10T04:57:41;103128.81;;;20.09;52.18
58686;BME280;44465;53.206;-6.106;2023-02-10T05:00:07;103119.91;;;20.10;52.25
58686;BME280;44465;53.206;-6.106;2023-02-10T05:02:33;103110.16;;;20.05;51.92
58686;BME280;44465;53.206;-6.106;2023-02-10T05:04:58;103122.63;;;20.07;52.31
58686;BME280;44465;53.206;-6.106;2023-02-10T05:07:25;103110.22;;;20.00;52.39
58686;BME280;44465;53.206;-6.106;2023-02-10T05:09:50;103119.97;;;20.07;52.15
58686;BME280;44465;53.206;-6.106;2023-02-10T05:12:15;103120.84;;;20.08;52.13
58686;BME280;44465;53.206;-6.106;2023-02-10T05:14:41;103130.69;;;20.04;52.24
58686;BME280;44465;53.206;-6.106;2023-02-10T05:17:06;103127.94;;;20.09;52.31
58686;BME280;44465;53.206;-6.106;2023-02-10T05:19:32;103128.81;;;20.09;52.04
58686;BME280;44465;53.206;-6.106;2023-02-10T05:21:57;103122.56;;;20.10;52.32
58686;BME280;44465;53.206;-6.106;2023-02-10T05:24:23;103128.81;;;20.09;52.02
58686;BME280;44465;53.206;-6.106;2023-02-10T05:26:48;103118.22;;;20.03;52.25
58686;BME280;44465;53.206;-6.106;2023-02-10T05:29:14;103140.41;;;20.10;51.79
58686;BME280;44465;53.206;-6.106;2023-02-10T05:31:41;103129.72;;;20.10;52.26
58686;BME280;44465;53.206;-6.106;2023-02-10T05:34:06;103127.06;;;20.08;52.25
58686;BME280;44465;53.206;-6.106;2023-02-10T05:36:32;103121.69;;;20.08;52.04
58686;BME280;44465;53.206;-6.106;2023-02-10T05:38:57;103122.59;;;20.09;52.28
58686;BME280;44465;53.206;-6.106;2023-02-10T05:41:41;103119.91;;;20.10;52.25
58686;BME280;44465;53.206;-6.106;2023-02-10T05:44:07;103123.44;;;20.12;52.22
58686;BME280;44465;53.206;-6.106;2023-02-10T05:46:32;103119.94;;;20.09;52.17
58686;BME280;44465;53.206;-6.106;2023-02-10T05:48:57;103132.38;;;20.11;52.26
58686;BME280;44465;53.206;-6.106;2023-02-10T05:51:23;103120.88;;;20.06;51.90
58686;BME280;44465;53.206;-6.106;2023-02-10T05:53:48;103132.34;;;20.13;52.26
58686;BME280;44465;53.206;-6.106;2023-02-10T05:56:14;103123.44;;;20.12;52.05
58686;BME280;44465;53.206;-6.106;2023-02-10T05:58:39;103125.25;;;20.10;52.52
58686;BME280;44465;53.206;-6.106;2023-02-10T06:01:06;103112.72;;;20.12;52.15
58686;BME280;44465;53.206;-6.106;2023-02-10T06:03:33;103102.03;;;20.12;52.17
58686;BME280;44465;53.206;-6.106;2023-02-10T06:05:59;103096.69;;;20.12;52.23
58686;BME280;44465;53.206;-6.106;2023-02-10T06:08:24;103099.34;;;20.12;51.88
58686;BME280;44465;53.206;-6.106;2023-02-10T06:10:50;103094.94;;;20.08;52.21
58686;BME280;44465;53.206;-6.106;2023-02-10T06:13:15;103083.34;;;20.09;52.12
58686;BME280;44465;53.206;-6.106;2023-02-10T06:15:41;103091.38;;;20.09;52.26
58686;BME280;44465;53.206;-6.106;2023-02-10T06:18:06;103096.69;;;20.12;52.43
58686;BME280;44465;53.206;-6.106;2023-02-10T06:20:31;103102.03;;;20.12;52.22
58686;BME280;44465;53.206;-6.106;2023-02-10T06:22:57;103093.13;;;20.10;52.31
58686;BME280;44465;53.206;-6.106;2023-02-10T06:25:22;103115.44;;;20.11;52.11
58686;BME280;44465;53.206;-6.106;2023-02-10T06:27:48;103096.72;;;20.09;52.12
58686;BME280;44465;53.206;-6.106;2023-02-10T06:30:13;103095.81;;;20.12;52.13
58686;BME280;44465;53.206;-6.106;2023-02-10T06:32:39;103099.47;;;20.06;52.14
58686;BME280;44465;53.206;-6.106;2023-02-10T06:35:04;103109.25;;;20.07;52.37
58686;BME280;44465;53.206;-6.106;2023-02-10T06:37:30;103110.09;;;20.11;52.26
58686;BME280;44465;53.206;-6.106;2023-02-10T06:39:55;103101.28;;;20.04;52.17
58686;BME280;44465;53.206;-6.106;2023-02-10T06:42:21;103118.06;;;20.14;52.06
58686;BME280;44465;53.206;-6.106;2023-02-10T06:44:46;103120.84;;;20.08;52.23
58686;BME280;44465;53.206;-6.106;2023-02-10T06:47:12;103088.81;;;20.03;52.10
58686;BME280;44465;53.206;-6.106;2023-02-10T06:49:37;103114.50;;;20.13;52.08
58686;BME280;44465;53.206;-6.106;2023-02-10T06:52:03;103105.66;;;20.08;51.81
58686;BME280;44465;53.206;-6.106;2023-02-10T06:54:29;103099.41;;;20.11;52.05
58686;BME280;44465;53.206;-6.106;2023-02-10T06:56:54;103112.72;;;20.12;52.23
58686;BME280;44465;53.206;-6.106;2023-02-10T06:59:20;103119.88;;;20.12;52.10
58686;BME280;44465;53.206;-6.106;2023-02-10T07:01:46;103123.44;;;20.12;52.20
58686;BME280;44465;53.206;-6.106;2023-02-10T07:04:11;103111.88;;;20.12;52.33
58686;BME280;44465;53.206;-6.106;2023-02-10T07:06:38;103105.56;;;20.13;52.34
58686;BME280;44465;53.206;-6.106;2023-02-10T07:09:04;103104.72;;;20.12;52.18
58686;BME280;44465;53.206;-6.106;2023-02-10T07:11:30;103088.78;;;20.06;52.16
58686;BME280;44465;53.206;-6.106;2023-02-10T07:13:56;103087.03;;;20.02;52.10
58686;BME280;44465;53.206;-6.106;2023-02-10T07:16:22;103098.47;;;20.13;52.21
58686;BME280;44465;53.206;-6.106;2023-02-10T07:18:47;103088.69;;;20.09;52.26
58686;BME280;44465;53.206;-6.106;2023-02-10T07:21:13;103094.94;;;20.08;52.30
58686;BME280;44465;53.206;-6.106;2023-02-10T07:23:39;103087.78;;;20.10;52.04
58686;BME280;44465;53.206;-6.106;2023-02-10T07:26:05;103102.06;;;20.09;52.19
58686;BME280;44465;53.206;-6.106;2023-02-10T07:28:31;103102.06;;;20.11;52.20
58686;BME280;44465;53.206;-6.106;2023-02-10T07:30:56;103108.31;;;20.10;52.08
58686;BME280;44465;53.206;-6.106;2023-02-10T07:33:22;103096.78;;;20.06;52.36
58686;BME280;44465;53.206;-6.106;2023-02-10T07:35:47;103113.59;;;20.13;52.25
58686;BME280;44465;53.206;-6.106;2023-02-10T07:38:13;103105.66;;;20.08;52.36
58686;BME280;44465;53.206;-6.106;2023-02-10T07:40:38;103114.53;;;20.10;52.26
58686;BME280;44465;53.206;-6.106;2023-02-10T07:43:04;103111.03;;;20.07;52.22
58686;BME280;44465;53.206;-6.106;2023-02-10T07:45:41;103128.88;;;20.06;52.20
58686;BME280;44465;53.206;-6.106;2023-02-10T07:48:07;103122.63;;;20.06;52.27
58686;BME280;44465;53.206;-6.106;2023-02-10T07:50:32;103132.44;;;20.07;52.30
58686;BME280;44465;53.206;-6.106;2023-02-10T07:52:58;103142.19;;;20.09;52.24
58686;BME280;44465;53.206;-6.106;2023-02-10T07:55:23;103147.53;;;20.09;52.20
58686;BME280;44465;53.206;-6.106;2023-02-10T07:57:49;103144.94;;;20.06;52.35
58686;BME280;44465;53.206;-6.106;2023-02-10T08:00:16;103137.00;;;19.98;52.48
58686;BME280;44465;53.206;-6.106;2023-02-10T08:02:41;103152.91;;;20.09;52.36
58686;BME280;44465;53.206;-6.106;2023-02-10T08:05:07;103152.09;;;20.04;52.19
58686;BME280;44465;53.206;-6.106;2023-02-10T08:07:33;103155.56;;;20.09;52.39
58686;BME280;44465;53.206;-6.106;2023-02-10T08:09:58;103150.25;;;20.08;52.40
58686;BME280;44465;53.206;-6.106;2023-02-10T08:12:24;103149.34;;;20.09;52.38
58686;BME280;44465;53.206;-6.106;2023-02-10T08:14:49;103137.81;;;20.05;52.46
58686;BME280;44465;53.206;-6.106;2023-02-10T08:17:15;103145.78;;;20.08;52.49
58686;BME280;44465;53.206;-6.106;2023-02-10T08:19:40;103151.13;;;20.08;52.23
58686;BME280;44465;53.206;-6.106;2023-02-10T08:22:06;103140.41;;;20.08;52.23
58686;BME280;44465;53.206;-6.106;2023-02-10T08:24:31;103146.69;;;20.09;52.47
58686;BME280;44465;53.206;-6.106;2023-02-10T08:26:57;103152.06;;;20.07;52.45
58686;BME280;44465;53.206;-6.106;2023-02-10T08:29:22;103158.28;;;20.08;52.35
58686;BME280;44465;53.206;-6.106;2023-02-10T08:31:49;103144.94;;;20.06;52.21
58686;BME280;44465;53.206;-6.106;2023-02-10T08:34:17;103145.84;;;20.05;52.62
58686;BME280;44465;53.206;-6.106;2023-02-10T08:36:44;103154.75;;;20.03;52.37
58686;BME280;44465;53.206;-6.106;2023-02-10T08:39:10;103148.47;;;20.07;52.40
58686;BME280;44465;53.206;-6.106;2023-02-10T08:41:36;103157.41;;;20.07;52.35
58686;BME280;44465;53.206;-6.106;2023-02-10T08:44:01;103156.53;;;20.04;52.39
58686;BME280;44465;53.206;-6.106;2023-02-10T08:46:27;103166.28;;;20.09;52.31
58686;BME280;44465;53.206;-6.106;2023-02-10T08:48:52;103161.81;;;20.10;52.36
58686;BME280;44465;53.206;-6.106;2023-02-10T08:51:19;103173.41;;;20.10;52.26
58686;BME280;44465;53.206;-6.106;2023-02-10T08:53:45;103157.34;;;20.10;52.19
58686;BME280;44465;53.206;-6.106;2023-02-10T08:56:15;103164.47;;;20.11;52.37
58686;BME280;44465;53.206;-6.106;2023-02-10T08:58:40;103164.56;;;20.05;52.14
58686;BME280;44465;53.206;-6.106;2023-02-10T09:01:19;103174.31;;;20.08;52.13
58686;BME280;44465;53.206;-6.106;2023-02-10T09:03:45;103165.41;;;20.09;52.21
58686;BME280;44465;53.206;-6.106;2023-02-10T09:06:22;103156.50;;;20.07;52.23
58686;BME280;44465;53.206;-6.106;2023-02-10T09:08:49;103168.09;;;20.07;52.50
58686;BME280;44465;53.206;-6.106;2023-02-10T09:11:15;103164.63;;;19.99;52.22
58686;BME280;44465;53.206;-6.106;2023-02-10T09:13:41;103171.75;;;20.00;52.22
58686;BME280;44465;53.206;-6.106;2023-02-10T09:16:07;103167.16;;;20.08;52.05
58686;BME280;44465;53.206;-6.106;2023-02-10T09:18:32;103180.53;;;20.08;52.22
58686;BME280;44465;53.206;-6.106;2023-02-10T09:20:59;103178.81;;;20.06;52.59
58686;BME280;44465;53.206;-6.106;2023-02-10T09:23:24;103182.34;;;20.08;52.30
58686;BME280;44465;53.206;-6.106;2023-02-10T09:25:58;103169.97;;;19.99;52.42
58686;BME280;44465;53.206;-6.106;2023-02-10T09:28:25;103191.25;;;20.08;52.27
58686;BME280;44465;53.206;-6.106;2023-02-10T09:30:50;103193.94;;;20.07;52.22
58686;BME280;44465;53.206;-6.106;2023-02-10T09:33:16;103206.44;;;20.08;52.38
58686;BME280;44465;53.206;-6.106;2023-02-10T09:35:42;103208.19;;;20.09;52.20
58686;BME280;44465;53.206;-6.106;2023-02-10T09:38:09;103205.56;;;20.06;52.09
58686;BME280;44465;53.206;-6.106;2023-02-10T09:40:56;103202.91;;;20.03;52.24
58686;BME280;44465;53.206;-6.106;2023-02-10T09:43:36;103206.44;;;20.08;52.40
58686;BME280;44465;53.206;-6.106;2023-02-10T09:54:22;103204.72;;;20.02;52.38
58686;BME280;44465;53.206;-6.106;2023-02-10T09:56:48;103200.22;;;20.07;52.33
58686;BME280;44465;53.206;-6.106;2023-02-10T09:59:18;103197.53;;;20.07;52.30
58686;BME280;44465;53.206;-6.106;2023-02-10T10:01:54;103214.47;;;20.06;52.14
58686;BME280;44465;53.206;-6.106;2023-02-10T10:04:21;103212.66;;;20.08;52.27
58686;BME280;44465;53.206;-6.106;2023-02-10T10:06:54;103207.28;;;20.08;52.09
58686;BME280;44465;53.206;-6.106;2023-02-10T10:09:30;103217.09;;;20.09;52.01
58686;BME280;44465;53.206;-6.106;2023-02-10T10:11:58;103210.00;;;20.07;51.95
58686;BME280;44465;53.206;-6.106;2023-02-10T10:30:33;103190.56;;;19.94;52.23
58686;BME280;44465;53.206;-6.106;2023-02-10T10:35:42;103212.69;;;20.07;52.30
58686;BME280;44465;53.206;-6.106;2023-02-10T10:38:13;103212.66;;;20.08;52.26
58686;BME280;44465;53.206;-6.106;2023-02-10T10:40:39;103225.13;;;20.09;52.14
58686;BME280;44465;53.206;-6.106;2023-02-10T10:43:13;103223.34;;;20.08;52.32
58686;BME280;44465;53.206;-6.106;2023-02-10T10:45:46;103217.09;;;20.11;52.34
58686;BME280;44465;53.206;-6.106;2023-02-10T10:48:19;103222.44;;;20.09;52.26
58686;BME280;44465;53.206;-6.106;2023-02-10T10:50:50;103223.47;;;20.01;52.41
58686;BME280;44465;53.206;-6.106;2023-02-10T10:53:42;103218.06;;;20.05;52.24
58686;BME280;44465;53.206;-6.106;2023-02-10T10:56:34;103220.69;;;20.07;52.37
58686;BME280;44465;53.206;-6.106;2023-02-10T10:59:09;103228.75;;;20.05;52.37
58686;BME280;44465;53.206;-6.106;2023-02-10T11:01:39;103226.94;;;20.07;52.35
58686;BME280;44465;53.206;-6.106;2023-02-10T11:04:12;103224.28;;;20.07;52.55
58686;BME280;44465;53.206;-6.106;2023-02-10T11:06:39;103224.25;;;20.09;52.43
58686;BME280;44465;53.206;-6.106;2023-02-10T11:09:14;103228.69;;;20.08;52.43
58686;BME280;44465;53.206;-6.106;2023-02-10T11:11:43;103219.88;;;20.00;52.33
58686;BME280;44465;53.206;-6.106;2023-02-10T11:14:17;103234.91;;;20.10;52.14
58686;BME280;44465;53.206;-6.106;2023-02-10T11:16:49;103227.78;;;20.11;52.24
58686;BME280;44465;53.206;-6.106;2023-02-10T11:19:24;103206.53;;;20.02;52.19
58686;BME280;44465;53.206;-6.106;2023-02-10T11:21:50;103224.19;;;20.13;52.44
58686;BME280;44465;53.206;-6.106;2023-02-10T11:24:36;103226.91;;;20.10;52.27
58686;BME280;44465;53.206;-6.106;2023-02-10T11:27:05;103221.53;;;20.10;52.39
58686;BME280;44465;53.206;-6.106;2023-02-10T11:29:45;103221.50;;;20.13;52.15
58686;BME280;44465;53.206;-6.106;2023-02-10T11:34:51;103217.09;;;20.09;52.36
58686;BME280;44465;53.206;-6.106;2023-02-10T11:37:30;103220.59;;;20.13;52.27
58686;BME280;44465;53.206;-6.106;2023-02-10T11:39:58;103204.56;;;20.14;52.28
58686;BME280;44465;53.206;-6.106;2023-02-10T11:42:30;103217.94;;;20.14;52.22
58686;BME280;44465;53.206;-6.106;2023-02-10T11:44:59;103216.13;;;20.15;52.32
58686;BME280;44465;53.206;-6.106;2023-02-10T11:47:28;103217.03;;;20.15;52.17
58686;BME280;44465;53.206;-6.106;2023-02-10T11:49:54;103215.22;;;20.16;52.32
58686;BME280;44465;53.206;-6.106;2023-02-10T11:52:22;103232.19;;;20.17;52.02
58686;BME280;44465;53.206;-6.106;2023-02-10T11:54:50;103216.16;;;20.13;52.36
58686;BME280;44465;53.206;-6.106;2023-02-10T12:08:29;103213.44;;;20.18;52.13
58686;BME280;44465;53.206;-6.106;2023-02-10T12:11:08;103201.06;;;20.08;52.21
58686;BME280;44465;53.206;-6.106;2023-02-10T12:14:16;103214.31;;;20.17;52.16
58686;BME280;44465;53.206;-6.106;2023-02-10T12:17:11;103208.09;;;20.17;52.17
58686;BME280;44465;53.206;-6.106;2023-02-10T12:19:52;103189.34;;;20.18;52.27
58686;BME280;44465;53.206;-6.106;2023-02-10T12:25:24;103194.59;;;20.26;51.80
58686;BME280;44465;53.206;-6.106;2023-02-10T12:28:13;103193.75;;;20.22;51.98
58686;BME280;44465;53.206;-6.106;2023-02-10T12:36:59;103179.41;;;20.28;52.01
58686;BME280;44465;53.206;-6.106;2023-02-10T12:39:36;103148.44;;;20.08;51.84
58686;BME280;44465;53.206;-6.106;2023-02-10T12:53:39;103149.38;;;20.07;51.87
58686;BME280;44465;53.206;-6.106;2023-02-10T12:56:32;103166.13;;;20.19;52.07
58686;BME280;44465;53.206;-6.106;2023-02-10T12:59:10;103147.63;;;20.05;52.11
58686;BME280;44465;53.206;-6.106;2023-02-10T13:01:42;103099.75;;;19.83;52.16
58686;BME280;44465;53.206;-6.106;2023-02-10T13:06:54;103148.66;;;19.96;51.95
58686;BME280;44465;53.206;-6.106;2023-02-10T13:09:28;103162.72;;;20.09;51.81
58686;BME280;44465;53.206;-6.106;2023-02-10T13:12:25;103153.88;;;20.05;51.97
58686;BME280;44465;53.206;-6.106;2023-02-10T13:15:01;103158.31;;;20.06;52.01
58686;BME280;44465;53.206;-6.106;2023-02-10T13:17:38;103151.22;;;20.02;52.10
58686;BME280;44465;53.206;-6.106;2023-02-10T13:23:13;103138.88;;;19.92;52.10
58686;BME280;44465;53.206;-6.106;2023-02-10T13:33:58;103195.47;;;20.26;52.07
58686;BME280;44465;53.206;-6.106;2023-02-10T13:36:27;103137.13;;;19.88;52.15
58686;BME280;44465;53.206;-6.106;2023-02-10T13:41:35;103170.72;;;20.10;52.12
58686;BME280;44465;53.206;-6.106;2023-02-10T13:44:31;103194.63;;;20.23;52.21
58686;BME280;44465;53.206;-6.106;2023-02-10T13:47:12;103188.41;;;20.21;52.19
58686;BME280;44465;53.206;-6.106;2023-02-10T13:49:52;103146.81;;;19.99;52.28
58686;BME280;44465;53.206;-6.106;2023-02-10T13:52:22;103176.84;;;20.19;52.09
58686;BME280;44465;53.206;-6.106;2023-02-10T13:54:57;103153.88;;;20.05;52.04
58686;BME280;44465;53.206;-6.106;2023-02-10T13:57:33;103129.06;;;19.92;52.13
58686;BME280;44465;53.206;-6.106;2023-02-10T14:00:26;103150.31;;;20.03;52.12
58686;BME280;44465;53.206;-6.106;2023-02-10T14:03:22;103176.84;;;20.19;51.94
58686;BME280;44465;53.206;-6.106;2023-02-10T14:08:30;103182.19;;;20.20;52.16
58686;BME280;44465;53.206;-6.106;2023-02-10T14:13:26;103110.41;;;19.88;51.81
58686;BME280;44465;53.206;-6.106;2023-02-10T14:18:43;103171.38;;;20.28;51.91
58686;BME280;44465;53.206;-6.106;2023-02-10T14:21:13;103137.69;;;20.14;52.14
58686;BME280;44465;53.206;-6.106;2023-02-10T14:23:41;103136.00;;;20.07;52.06
58686;BME280;44465;53.206;-6.106;2023-02-10T14:26:18;103130.63;;;20.09;51.70
58686;BME280;44465;53.206;-6.106;2023-02-10T14:28:48;103135.91;;;20.13;51.69
58686;BME280;44465;53.206;-6.106;2023-02-10T14:31:23;103126.16;;;20.09;51.75
58686;BME280;44465;53.206;-6.106;2023-02-10T14:33:55;103081.81;;;19.93;51.84
58686;BME280;44465;53.206;-6.106;2023-02-10T14:36:21;103113.75;;;20.04;51.83
58686;BME280;44465;53.206;-6.106;2023-02-10T14:38:53;103154.31;;;20.34;51.83
58686;BME280;44465;53.206;-6.106;2023-02-10T14:41:21;103155.22;;;20.34;51.91
58686;BME280;44465;53.206;-6.106;2023-02-10T14:43:48;103129.56;;;20.22;51.74
58686;BME280;44465;53.206;-6.106;2023-02-10T14:46:20;103099.53;;;20.00;51.79
58686;BME280;44465;53.206;-6.106;2023-02-10T14:48:46;103085.28;;;19.98;52.00